METAR Data
IDs: Format: Raw Decoded Include TAF

Data at: 1528 UTC 18 Aug 2019

FNLU 181500Z 28007KT 9000 NSC 24/21 Q1011

TAF FNLU 181100Z 1812/1918 27008KT 9000 SCT022
  TEMPO 1814/1818 20012KT CAVOK
  BECMG 1819/1821 7000 NSC
  TEMPO 1904/1909 VRB03KT 5000 BR BKN018


FNCA 181500Z 18008KT 9999 FEW016 26/20 Q1011

TAF FNCA 181100Z 1812/1824 21010KT 9999 FEW020 SCT025
  BECMG 1818/1820 15005KT 8000 BKN020


FNBG 181400Z 34005KT CAVOK 25/17 Q1012

TAF FNBG 181110Z 1812/1824 27010KT CAVOK
  BECMG 1818/1820 21005KT 7000 SCT022


FNHU 181500Z 19006KT CAVOK 27/04 Q1021

TAF FNHU 181100Z 1812/1824 12005KT 9999 FEW025
  BECMG 1818/1828 VRB03KT 7000 NSC


FNUE 181400Z 22008KT 9999 SCT012 ///// Q////

TAF FNUE 181100Z 1812/1824 09010KT CAVOK
  BECMG 1818/1820 7000 NSC


FNGI 181500Z 04006KT CAVOK 30/00 Q1018
No TAF found for FNGI

FNUB 181200Z 04012KT CAVOK 25/M03 Q1026

TAF FNUB 181100Z 1812/1824 12005KT CAVOK
  BECMG 1818/1820 8000 NSC


FNMO 181100Z 25010KT 9999 SCT018 21/16 Q1015

TAF FNMO 181100Z 1812/1824 27010KT CAVOK
  TEMPO 1818/1820 20008KT 9000 SCT020


FNUG 181500Z 27008KT 8000 BKN022 23/16 Q1013
No TAF found for FNUG

FNMA 181500Z VRB02KT 9000 BKN022 29/23 Q1015

TAF FNMA 181100Z 1812/1824 08008KT CAVOK
  TEMPO 1818/1821 VRB03KT 7000 SCT018


FNSA 181500Z 09005KT CAVOK 32/11 Q1018

TAF FNSA 181100Z 1812/1824 14005KT CAVOK
  BECMG 1818/1820 VRB03KT 7000 NSC


FNSO 181500Z 25012KT 9999 FEW010

TAF FNSO 181100Z 1812/1824 23010KT 9999 FEW018 BKN022
  TEMPO 1818/1820 16005KT 8000


FNBC 181500Z 24006KT 9999 BKN015 27/19 Q1012
No TAF found for FNBC

FNSU 181500Z 21005KT CAVOK 24/// Q1014
No TAF found for FNSU

FNDU 181200Z 00000KT 8000 NSC 31/11 Q1016

TAF FNDU 181100Z 1812/1824 14004KT CAVOK
  TEMPO 1818/1821 VRB03KT 8000 SCT018


No METAR found for FNME

TAF FNME 181100Z 1812/1824 08008KT CAVOK

No METAR found for FNCT

TAF FNCT 181100Z 1812/1824 28010KT CAVOK
  BECMG 1818/1820 21005KT 7000 SCT018


FNKU 181500Z 21005KT CAVOK 26/18 Q1019

TAF FNKU 181100Z 1812/1824 09008KT 9999 FEW030
  BECMG 1818/1820 VRB03KT 7000 NSC